sensor_id;sensor_type;location;lat;lon;timestamp;temperature;humidity
74901;DHT22;63461;51.416;6.758;2023-07-29T00:02:11;19.10;99.90
74901;DHT22;63461;51.416;6.758;2023-07-29T00:04:37;19.10;99.90
74901;DHT22;63461;51.416;6.758;2023-07-29T00:07:03;19.10;99.90
74901;DHT22;63461;51.416;6.758;2023-07-29T00:09:29;19.10;99.90
74901;DHT22;63461;51.416;6.758;2023-07-29T00:11:55;19.10;99.90
74901;DHT22;63461;51.416;6.758;2023-07-29T00:14:20;19.10;99.90
74901;DHT22;63461;51.416;6.758;2023-07-29T00:16:46;19.20;99.90
74901;DHT22;63461;51.416;6.758;2023-07-29T00:19:12;19.10;99.90
74901;DHT22;63461;51.416;6.758;2023-07-29T00:21:41;19.10;99.90
74901;DHT22;63461;51.416;6.758;2023-07-29T00:24:07;19.10;99.90
74901;DHT22;63461;51.416;6.758;2023-07-29T00:26:32;19.10;99.90
74901;DHT22;63461;51.416;6.758;2023-07-29T00:29:01;19.10;99.90
74901;DHT22;63461;51.416;6.758;2023-07-29T00:31:27;19.10;99.90
74901;DHT22;63461;51.416;6.758;2023-07-29T00:33:53;19.10;99.90
74901;DHT22;63461;51.416;6.758;2023-07-29T00:36:22;19.10;99.90
74901;DHT22;63461;51.416;6.758;2023-07-29T00:38:48;19.20;99.90
74901;DHT22;63461;51.416;6.758;2023-07-29T00:41:15;19.20;99.90
74901;DHT22;63461;51.416;6.758;2023-07-29T00:43:44;19.20;99.90
74901;DHT22;63461;51.416;6.758;2023-07-29T00:46:10;19.10;99.90
74901;DHT22;63461;51.416;6.758;2023-07-29T00:48:39;19.10;99.90
74901;DHT22;63461;51.416;6.758;2023-07-29T00:51:05;19.10;99.90
74901;DHT22;63461;51.416;6.758;2023-07-29T00:53:31;19.10;99.90
74901;DHT22;63461;51.416;6.758;2023-07-29T00:55:57;19.10;99.90
74901;DHT22;63461;51.416;6.758;2023-07-29T00:58:26;19.10;99.90
74901;DHT22;63461;51.416;6.758;2023-07-29T01:00:53;19.10;99.90
74901;DHT22;63461;51.416;6.758;2023-07-29T01:03:20;19.10;99.90
74901;DHT22;63461;51.416;6.758;2023-07-29T01:06:17;19.10;99.90
74901;DHT22;63461;51.416;6.758;2023-07-29T01:08:55;19.20;99.90
74901;DHT22;63461;51.416;6.758;2023-07-29T01:11:57;19.20;99.90
74901;DHT22;63461;51.416;6.758;2023-07-29T01:14:31;19.20;99.90
74901;DHT22;63461;51.416;6.758;2023-07-29T01:17:03;19.20;99.90
74901;DHT22;63461;51.416;6.758;2023-07-29T01:22:20;19.30;99.90
74901;DHT22;63461;51.416;6.758;2023-07-29T01:24:46;19.20;99.90
74901;DHT22;63461;51.416;6.758;2023-07-29T01:27:12;19.20;99.90
74901;DHT22;63461;51.416;6.758;2023-07-29T01:29:41;19.20;99.90
74901;DHT22;63461;51.416;6.758;2023-07-29T01:32:11;19.20;99.90
74901;DHT22;63461;51.416;6.758;2023-07-29T01:34:46;19.20;99.90
74901;DHT22;63461;51.416;6.758;2023-07-29T01:37:19;19.20;99.90
74901;DHT22;63461;51.416;6.758;2023-07-29T01:39:49;19.20;99.90
74901;DHT22;63461;51.416;6.758;2023-07-29T01:42:16;19.20;99.90
74901;DHT22;63461;51.416;6.758;2023-07-29T01:44:42;19.20;99.90
74901;DHT22;63461;51.416;6.758;2023-07-29T01:47:08;19.20;99.90
74901;DHT22;63461;51.416;6.758;2023-07-29T01:49:34;19.10;99.90
74901;DHT22;63461;51.416;6.758;2023-07-29T01:52:00;19.20;99.90
74901;DHT22;63461;51.416;6.758;2023-07-29T01:54:29;19.20;99.90
74901;DHT22;63461;51.416;6.758;2023-07-29T01:56:54;19.20;99.90
74901;DHT22;63461;51.416;6.758;2023-07-29T01:59:20;19.20;99.90
74901;DHT22;63461;51.416;6.758;2023-07-29T02:01:49;19.20;99.90
74901;DHT22;63461;51.416;6.758;2023-07-29T02:04:15;19.20;99.90
74901;DHT22;63461;51.416;6.758;2023-07-29T02:06:41;19.20;99.90
74901;DHT22;63461;51.416;6.758;2023-07-29T02:09:07;19.20;99.90
74901;DHT22;63461;51.416;6.758;2023-07-29T02:11:33;19.20;99.90
74901;DHT22;63461;51.416;6.758;2023-07-29T02:13:59;19.20;99.90
74901;DHT22;63461;51.416;6.758;2023-07-29T02:16:24;19.20;99.90
74901;DHT22;63461;51.416;6.758;2023-07-29T02:18:53;19.20;99.90
74901;DHT22;63461;51.416;6.758;2023-07-29T02:21:19;19.20;99.90
74901;DHT22;63461;51.416;6.758;2023-07-29T02:23:44;19.20;99.90
74901;DHT22;63461;51.416;6.758;2023-07-29T02:26:10;19.20;99.90
74901;DHT22;63461;51.416;6.758;2023-07-29T02:28:38;19.20;99.90
74901;DHT22;63461;51.416;6.758;2023-07-29T02:31:19;19.20;99.90
74901;DHT22;63461;51.416;6.758;2023-07-29T02:33:45;19.20;99.90
74901;DHT22;63461;51.416;6.758;2023-07-29T02:36:14;19.20;99.90
74901;DHT22;63461;51.416;6.758;2023-07-29T02:38:40;19.20;99.90
74901;DHT22;63461;51.416;6.758;2023-07-29T02:41:10;19.20;99.90
74901;DHT22;63461;51.416;6.758;2023-07-29T02:43:38;19.20;99.90
74901;DHT22;63461;51.416;6.758;2023-07-29T02:46:07;19.20;99.90
74901;DHT22;63461;51.416;6.758;2023-07-29T02:48:32;19.20;99.90
74901;DHT22;63461;51.416;6.758;2023-07-29T02:50:58;19.30;99.90
74901;DHT22;63461;51.416;6.758;2023-07-29T02:53:27;19.30;99.90
74901;DHT22;63461;51.416;6.758;2023-07-29T02:55:53;19.20;99.90
74901;DHT22;63461;51.416;6.758;2023-07-29T02:58:21;19.30;99.90
74901;DHT22;63461;51.416;6.758;2023-07-29T03:00:47;19.20;99.90
74901;DHT22;63461;51.416;6.758;2023-07-29T03:03:14;19.20;99.90
74901;DHT22;63461;51.416;6.758;2023-07-29T03:05:40;19.30;99.90
74901;DHT22;63461;51.416;6.758;2023-07-29T03:08:07;19.20;99.90
74901;DHT22;63461;51.416;6.758;2023-07-29T03:10:35;19.20;99.90
74901;DHT22;63461;51.416;6.758;2023-07-29T03:13:01;19.30;99.90
74901;DHT22;63461;51.416;6.758;2023-07-29T03:15:30;19.30;99.90
74901;DHT22;63461;51.416;6.758;2023-07-29T03:17:55;19.20;99.90
74901;DHT22;63461;51.416;6.758;2023-07-29T03:20:21;19.20;99.90
74901;DHT22;63461;51.416;6.758;2023-07-29T03:22:47;19.20;99.90
74901;DHT22;63461;51.416;6.758;2023-07-29T03:25:13;19.10;99.90
74901;DHT22;63461;51.416;6.758;2023-07-29T03:27:39;19.10;99.90
74901;DHT22;63461;51.416;6.758;2023-07-29T03:30:06;19.20;99.90
74901;DHT22;63461;51.416;6.758;2023-07-29T03:32:33;19.10;99.90
74901;DHT22;63461;51.416;6.758;2023-07-29T03:34:59;19.10;99.90
74901;DHT22;63461;51.416;6.758;2023-07-29T03:37:24;19.10;99.90
74901;DHT22;63461;51.416;6.758;2023-07-29T03:39:50;19.10;99.90
74901;DHT22;63461;51.416;6.758;2023-07-29T03:42:18;19.10;99.90
74901;DHT22;63461;51.416;6.758;2023-07-29T03:44:44;19.10;99.90
74901;DHT22;63461;51.416;6.758;2023-07-29T03:47:09;19.20;99.90
74901;DHT22;63461;51.416;6.758;2023-07-29T03:49:37;19.10;99.90
74901;DHT22;63461;51.416;6.758;2023-07-29T03:52:03;19.10;99.90
74901;DHT22;63461;51.416;6.758;2023-07-29T03:54:29;19.10;99.90
74901;DHT22;63461;51.416;6.758;2023-07-29T03:56:55;19.10;99.90
74901;DHT22;63461;51.416;6.758;2023-07-29T03:59:24;19.10;99.90
74901;DHT22;63461;51.416;6.758;2023-07-29T04:01:50;19.10;99.90
74901;DHT22;63461;51.416;6.758;2023-07-29T04:04:16;19.00;99.90
74901;DHT22;63461;51.416;6.758;2023-07-29T04:06:42;19.00;99.90
74901;DHT22;63461;51.416;6.758;2023-07-29T04:09:08;19.10;99.90
74901;DHT22;63461;51.416;6.758;2023-07-29T04:11:34;19.00;99.90
74901;DHT22;63461;51.416;6.758;2023-07-29T04:14:00;19.00;99.90
74901;DHT22;63461;51.416;6.758;2023-07-29T04:16:26;19.00;99.90
74901;DHT22;63461;51.416;6.758;2023-07-29T04:18:52;19.00;99.90
74901;DHT22;63461;51.416;6.758;2023-07-29T04:21:17;18.90;99.90
74901;DHT22;63461;51.416;6.758;2023-07-29T04:23:43;18.90;99.90
74901;DHT22;63461;51.416;6.758;2023-07-29T04:26:09;18.90;99.90
74901;DHT22;63461;51.416;6.758;2023-07-29T04:28:35;18.90;99.90
74901;DHT22;63461;51.416;6.758;2023-07-29T04:31:00;18.90;99.90
74901;DHT22;63461;51.416;6.758;2023-07-29T04:33:26;18.90;99.90
74901;DHT22;63461;51.416;6.758;2023-07-29T04:35:52;18.90;99.90
74901;DHT22;63461;51.416;6.758;2023-07-29T04:38:18;18.90;99.90
74901;DHT22;63461;51.416;6.758;2023-07-29T04:40:44;18.90;99.90
74901;DHT22;63461;51.416;6.758;2023-07-29T04:43:10;18.80;99.90
74901;DHT22;63461;51.416;6.758;2023-07-29T04:45:36;18.80;99.90
74901;DHT22;63461;51.416;6.758;2023-07-29T04:48:07;18.80;99.90
74901;DHT22;63461;51.416;6.758;2023-07-29T04:50:33;18.90;99.90
74901;DHT22;63461;51.416;6.758;2023-07-29T04:52:59;18.80;99.90
74901;DHT22;63461;51.416;6.758;2023-07-29T04:55:24;18.80;99.90
74901;DHT22;63461;51.416;6.758;2023-07-29T04:57:50;18.80;99.90
74901;DHT22;63461;51.416;6.758;2023-07-29T05:00:16;18.80;99.90
74901;DHT22;63461;51.416;6.758;2023-07-29T05:02:42;18.90;99.90
74901;DHT22;63461;51.416;6.758;2023-07-29T05:05:08;18.90;99.90
74901;DHT22;63461;51.416;6.758;2023-07-29T05:07:33;18.90;99.90
74901;DHT22;63461;51.416;6.758;2023-07-29T05:09:59;19.00;99.90
74901;DHT22;63461;51.416;6.758;2023-07-29T05:12:25;18.90;99.90
74901;DHT22;63461;51.416;6.758;2023-07-29T05:14:51;18.90;99.90
74901;DHT22;63461;51.416;6.758;2023-07-29T05:17:17;18.90;99.90
74901;DHT22;63461;51.416;6.758;2023-07-29T05:19:42;18.90;99.90
74901;DHT22;63461;51.416;6.758;2023-07-29T05:22:08;18.90;99.90
74901;DHT22;63461;51.416;6.758;2023-07-29T05:24:35;18.90;99.90
74901;DHT22;63461;51.416;6.758;2023-07-29T05:27:01;18.90;99.90
74901;DHT22;63461;51.416;6.758;2023-07-29T05:29:27;18.90;99.90
74901;DHT22;63461;51.416;6.758;2023-07-29T05:31:53;18.90;99.90
74901;DHT22;63461;51.416;6.758;2023-07-29T05:34:19;19.00;99.90
74901;DHT22;63461;51.416;6.758;2023-07-29T05:36:45;19.00;99.90
74901;DHT22;63461;51.416;6.758;2023-07-29T05:39:10;19.00;99.90
74901;DHT22;63461;51.416;6.758;2023-07-29T05:41:37;18.90;99.90
74901;DHT22;63461;51.416;6.758;2023-07-29T05:44:03;19.00;99.90
74901;DHT22;63461;51.416;6.758;2023-07-29T05:46:29;19.00;99.90
74901;DHT22;63461;51.416;6.758;2023-07-29T05:48:55;18.90;99.90
74901;DHT22;63461;51.416;6.758;2023-07-29T05:51:20;19.00;99.90
74901;DHT22;63461;51.416;6.758;2023-07-29T05:53:46;19.00;99.90
74901;DHT22;63461;51.416;6.758;2023-07-29T05:56:12;19.00;99.90
74901;DHT22;63461;51.416;6.758;2023-07-29T05:58:38;19.00;99.90
74901;DHT22;63461;51.416;6.758;2023-07-29T06:01:04;19.00;99.90
74901;DHT22;63461;51.416;6.758;2023-07-29T06:03:29;19.00;99.90
74901;DHT22;63461;51.416;6.758;2023-07-29T06:05:55;18.90;99.90
74901;DHT22;63461;51.416;6.758;2023-07-29T06:08:21;18.90;99.90
74901;DHT22;63461;51.416;6.758;2023-07-29T06:10:47;18.90;99.90
74901;DHT22;63461;51.416;6.758;2023-07-29T06:13:13;19.00;99.90
74901;DHT22;63461;51.416;6.758;2023-07-29T06:15:39;19.00;99.90
74901;DHT22;63461;51.416;6.758;2023-07-29T06:18:04;19.10;99.90
74901;DHT22;63461;51.416;6.758;2023-07-29T06:20:30;19.10;99.90
74901;DHT22;63461;51.416;6.758;2023-07-29T06:22:56;19.00;99.90
74901;DHT22;63461;51.416;6.758;2023-07-29T06:25:22;19.10;99.90
74901;DHT22;63461;51.416;6.758;2023-07-29T06:27:48;19.20;99.90
74901;DHT22;63461;51.416;6.758;2023-07-29T06:30:13;19.20;99.90
74901;DHT22;63461;51.416;6.758;2023-07-29T06:32:39;19.20;99.90
74901;DHT22;63461;51.416;6.758;2023-07-29T06:35:05;19.20;99.90
74901;DHT22;63461;51.416;6.758;2023-07-29T06:37:31;19.10;99.90
74901;DHT22;63461;51.416;6.758;2023-07-29T06:39:58;19.10;99.90
74901;DHT22;63461;51.416;6.758;2023-07-29T06:42:24;19.10;99.90
74901;DHT22;63461;51.416;6.758;2023-07-29T06:44:50;19.20;99.90
74901;DHT22;63461;51.416;6.758;2023-07-29T06:47:16;19.40;99.90
74901;DHT22;63461;51.416;6.758;2023-07-29T06:49:41;19.50;99.90
74901;DHT22;63461;51.416;6.758;2023-07-29T06:52:07;19.60;99.90
74901;DHT22;63461;51.416;6.758;2023-07-29T06:54:33;19.60;99.90
74901;DHT22;63461;51.416;6.758;2023-07-29T06:56:59;19.60;99.90
74901;DHT22;63461;51.416;6.758;2023-07-29T06:59:24;19.50;99.90
74901;DHT22;63461;51.416;6.758;2023-07-29T07:01:51;19.50;99.90
74901;DHT22;63461;51.416;6.758;2023-07-29T07:04:17;19.50;99.90
74901;DHT22;63461;51.416;6.758;2023-07-29T07:06:42;19.40;99.90
74901;DHT22;63461;51.416;6.758;2023-07-29T07:09:08;19.70;99.90
74901;DHT22;63461;51.416;6.758;2023-07-29T07:11:34;19.70;99.90
74901;DHT22;63461;51.416;6.758;2023-07-29T07:13:59;19.60;99.90
74901;DHT22;63461;51.416;6.758;2023-07-29T07:16:25;19.60;99.90
74901;DHT22;63461;51.416;6.758;2023-07-29T07:18:51;19.60;99.90
74901;DHT22;63461;51.416;6.758;2023-07-29T07:21:17;19.60;99.90
74901;DHT22;63461;51.416;6.758;2023-07-29T07:23:43;19.70;99.90
74901;DHT22;63461;51.416;6.758;2023-07-29T07:26:08;19.60;99.90
74901;DHT22;63461;51.416;6.758;2023-07-29T07:28:34;19.50;99.90
74901;DHT22;63461;51.416;6.758;2023-07-29T07:31:00;19.70;99.90
74901;DHT22;63461;51.416;6.758;2023-07-29T07:33:26;19.60;99.90
74901;DHT22;63461;51.416;6.758;2023-07-29T07:35:51;19.70;99.90
74901;DHT22;63461;51.416;6.758;2023-07-29T07:38:17;19.80;99.90
74901;DHT22;63461;51.416;6.758;2023-07-29T07:40:52;19.70;99.90
74901;DHT22;63461;51.416;6.758;2023-07-29T07:43:19;19.80;99.90
74901;DHT22;63461;51.416;6.758;2023-07-29T07:45:45;19.90;99.90
74901;DHT22;63461;51.416;6.758;2023-07-29T07:48:11;19.80;99.90
74901;DHT22;63461;51.416;6.758;2023-07-29T07:50:39;19.80;99.90
74901;DHT22;63461;51.416;6.758;2023-07-29T07:53:05;19.90;99.90
74901;DHT22;63461;51.416;6.758;2023-07-29T07:55:30;19.90;99.90
74901;DHT22;63461;51.416;6.758;2023-07-29T07:57:56;19.90;99.90
74901;DHT22;63461;51.416;6.758;2023-07-29T08:00:22;19.80;99.90
74901;DHT22;63461;51.416;6.758;2023-07-29T08:02:47;19.80;99.90
74901;DHT22;63461;51.416;6.758;2023-07-29T08:05:13;19.80;99.90
74901;DHT22;63461;51.416;6.758;2023-07-29T08:07:39;19.80;99.90
74901;DHT22;63461;51.416;6.758;2023-07-29T08:10:05;19.90;99.90
74901;DHT22;63461;51.416;6.758;2023-07-29T08:12:32;19.90;99.90
74901;DHT22;63461;51.416;6.758;2023-07-29T08:14:58;20.00;99.90
74901;DHT22;63461;51.416;6.758;2023-07-29T08:17:24;20.10;99.90
74901;DHT22;63461;51.416;6.758;2023-07-29T08:19:49;20.20;99.90
74901;DHT22;63461;51.416;6.758;2023-07-29T08:22:15;20.30;99.90
74901;DHT22;63461;51.416;6.758;2023-07-29T08:24:43;20.20;99.90
74901;DHT22;63461;51.416;6.758;2023-07-29T08:27:08;20.20;99.90
74901;DHT22;63461;51.416;6.758;2023-07-29T08:29:34;20.30;99.90
74901;DHT22;63461;51.416;6.758;2023-07-29T08:32:00;20.30;99.90
74901;DHT22;63461;51.416;6.758;2023-07-29T08:34:26;20.20;99.90
74901;DHT22;63461;51.416;6.758;2023-07-29T08:36:51;20.30;99.90
74901;DHT22;63461;51.416;6.758;2023-07-29T08:39:17;20.50;99.90
74901;DHT22;63461;51.416;6.758;2023-07-29T08:41:57;20.50;99.90
74901;DHT22;63461;51.416;6.758;2023-07-29T08:44:26;20.50;99.90
74901;DHT22;63461;51.416;6.758;2023-07-29T08:46:56;20.50;99.90
74901;DHT22;63461;51.416;6.758;2023-07-29T08:49:26;20.60;99.90
74901;DHT22;63461;51.416;6.758;2023-07-29T08:51:53;20.70;99.90
74901;DHT22;63461;51.416;6.758;2023-07-29T08:54:20;20.80;99.90
74901;DHT22;63461;51.416;6.758;2023-07-29T08:56:46;21.00;99.90
74901;DHT22;63461;51.416;6.758;2023-07-29T08:59:13;21.00;99.90
74901;DHT22;63461;51.416;6.758;2023-07-29T09:01:39;21.10;99.90
74901;DHT22;63461;51.416;6.758;2023-07-29T09:04:05;21.00;99.90
74901;DHT22;63461;51.416;6.758;2023-07-29T09:06:31;21.00;99.90
74901;DHT22;63461;51.416;6.758;2023-07-29T09:08:59;20.90;99.90
74901;DHT22;63461;51.416;6.758;2023-07-29T09:11:25;21.00;99.90
74901;DHT22;63461;51.416;6.758;2023-07-29T09:13:51;21.10;99.90
74901;DHT22;63461;51.416;6.758;2023-07-29T09:16:19;21.10;99.90
74901;DHT22;63461;51.416;6.758;2023-07-29T09:18:48;21.10;99.90
74901;DHT22;63461;51.416;6.758;2023-07-29T09:21:17;21.00;99.90
74901;DHT22;63461;51.416;6.758;2023-07-29T09:23:44;21.00;99.90
74901;DHT22;63461;51.416;6.758;2023-07-29T09:26:10;21.10;99.90
74901;DHT22;63461;51.416;6.758;2023-07-29T09:28:37;21.30;99.90
74901;DHT22;63461;51.416;6.758;2023-07-29T09:31:04;21.20;99.90
74901;DHT22;63461;51.416;6.758;2023-07-29T09:33:33;21.10;99.90
74901;DHT22;63461;51.416;6.758;2023-07-29T09:36:01;21.00;99.90
74901;DHT22;63461;51.416;6.758;2023-07-29T09:38:27;21.10;99.90
74901;DHT22;63461;51.416;6.758;2023-07-29T09:40:57;21.10;99.90
74901;DHT22;63461;51.416;6.758;2023-07-29T09:43:32;21.00;99.90
74901;DHT22;63461;51.416;6.758;2023-07-29T09:46:05;21.20;99.90
74901;DHT22;63461;51.416;6.758;2023-07-29T09:48:37;21.40;99.90
74901;DHT22;63461;51.416;6.758;2023-07-29T09:51:14;21.40;99.90
74901;DHT22;63461;51.416;6.758;2023-07-29T09:53:46;21.40;99.90
74901;DHT22;63461;51.416;6.758;2023-07-29T09:56:13;21.50;99.90
74901;DHT22;63461;51.416;6.758;2023-07-29T09:58:39;21.60;99.90
74901;DHT22;63461;51.416;6.758;2023-07-29T10:01:07;21.40;99.90
74901;DHT22;63461;51.416;6.758;2023-07-29T10:03:34;21.30;99.90
74901;DHT22;63461;51.416;6.758;2023-07-29T10:06:04;21.40;99.90
74901;DHT22;63461;51.416;6.758;2023-07-29T10:08:31;21.50;99.90
74901;DHT22;63461;51.416;6.758;2023-07-29T10:11:08;21.60;99.90
74901;DHT22;63461;51.416;6.758;2023-07-29T10:13:34;21.70;99.90
74901;DHT22;63461;51.416;6.758;2023-07-29T10:16:00;21.80;99.90
74901;DHT22;63461;51.416;6.758;2023-07-29T10:18:31;21.90;99.90
74901;DHT22;63461;51.416;6.758;2023-07-29T10:20:59;21.90;99.90
74901;DHT22;63461;51.416;6.758;2023-07-29T10:23:26;21.80;99.90
74901;DHT22;63461;51.416;6.758;2023-07-29T10:26:03;21.80;99.90
74901;DHT22;63461;51.416;6.758;2023-07-29T10:28:30;21.70;99.90
74901;DHT22;63461;51.416;6.758;2023-07-29T10:31:00;21.70;99.90
74901;DHT22;63461;51.416;6.758;2023-07-29T10:33:26;21.60;99.90
74901;DHT22;63461;51.416;6.758;2023-07-29T10:35:53;21.90;99.90
74901;DHT22;63461;51.416;6.758;2023-07-29T10:38:22;22.00;99.90
74901;DHT22;63461;51.416;6.758;2023-07-29T10:40:53;22.20;99.90
74901;DHT22;63461;51.416;6.758;2023-07-29T10:43:33;22.40;99.90
74901;DHT22;63461;51.416;6.758;2023-07-29T10:46:21;22.40;99.90
74901;DHT22;63461;51.416;6.758;2023-07-29T10:51:35;22.20;99.90
74901;DHT22;63461;51.416;6.758;2023-07-29T10:54:02;22.40;99.90
74901;DHT22;63461;51.416;6.758;2023-07-29T10:56:32;22.50;99.90
74901;DHT22;63461;51.416;6.758;2023-07-29T10:59:22;22.70;99.90
74901;DHT22;63461;51.416;6.758;2023-07-29T11:01:54;22.80;99.90
74901;DHT22;63461;51.416;6.758;2023-07-29T11:12:42;22.70;99.90
74901;DHT22;63461;51.416;6.758;2023-07-29T11:15:17;22.70;99.90
74901;DHT22;63461;51.416;6.758;2023-07-29T11:17:50;22.60;99.90
74901;DHT22;63461;51.416;6.758;2023-07-29T11:20:18;22.50;99.90
74901;DHT22;63461;51.416;6.758;2023-07-29T11:22:44;22.60;99.90
74901;DHT22;63461;51.416;6.758;2023-07-29T11:25:13;22.60;99.90
74901;DHT22;63461;51.416;6.758;2023-07-29T11:27:39;22.60;99.90
74901;DHT22;63461;51.416;6.758;2023-07-29T11:30:08;22.50;99.90
74901;DHT22;63461;51.416;6.758;2023-07-29T11:32:35;22.60;99.90
74901;DHT22;63461;51.416;6.758;2023-07-29T11:35:06;22.70;99.90
74901;DHT22;63461;51.416;6.758;2023-07-29T11:37:34;22.90;99.90
74901;DHT22;63461;51.416;6.758;2023-07-29T11:40:00;22.80;99.90
74901;DHT22;63461;51.416;6.758;2023-07-29T11:42:27;22.80;99.90
74901;DHT22;63461;51.416;6.758;2023-07-29T11:44:56;22.80;99.90
74901;DHT22;63461;51.416;6.758;2023-07-29T11:47:22;22.80;99.90
74901;DHT22;63461;51.416;6.758;2023-07-29T11:49:48;22.80;99.90
74901;DHT22;63461;51.416;6.758;2023-07-29T11:52:14;22.80;99.90
74901;DHT22;63461;51.416;6.758;2023-07-29T11:54:48;22.90;99.90
74901;DHT22;63461;51.416;6.758;2023-07-29T11:57:14;23.00;99.90
74901;DHT22;63461;51.416;6.758;2023-07-29T11:59:41;23.00;99.90
74901;DHT22;63461;51.416;6.758;2023-07-29T12:02:16;23.10;99.90
74901;DHT22;63461;51.416;6.758;2023-07-29T12:04:45;23.30;99.90
74901;DHT22;63461;51.416;6.758;2023-07-29T12:07:12;23.20;99.90
74901;DHT22;63461;51.416;6.758;2023-07-29T12:09:39;23.10;99.90
74901;DHT22;63461;51.416;6.758;2023-07-29T12:12:06;23.20;99.90
74901;DHT22;63461;51.416;6.758;2023-07-29T12:14:33;23.30;99.90
74901;DHT22;63461;51.416;6.758;2023-07-29T12:17:03;23.30;99.90
74901;DHT22;63461;51.416;6.758;2023-07-29T12:19:37;23.30;99.90
74901;DHT22;63461;51.416;6.758;2023-07-29T12:22:04;23.40;99.90
74901;DHT22;63461;51.416;6.758;2023-07-29T12:24:31;23.50;99.90
74901;DHT22;63461;51.416;6.758;2023-07-29T12:26:57;23.50;99.90
74901;DHT22;63461;51.416;6.758;2023-07-29T12:29:23;23.70;99.90
74901;DHT22;63461;51.416;6.758;2023-07-29T12:31:53;23.60;99.90
74901;DHT22;63461;51.416;6.758;2023-07-29T12:34:22;23.50;99.90
74901;DHT22;63461;51.416;6.758;2023-07-29T12:36:49;23.60;99.90
74901;DHT22;63461;51.416;6.758;2023-07-29T12:39:20;23.70;99.90
74901;DHT22;63461;51.416;6.758;2023-07-29T12:41:50;23.70;99.90
74901;DHT22;63461;51.416;6.758;2023-07-29T12:44:16;23.40;99.90
74901;DHT22;63461;51.416;6.758;2023-07-29T12:46:42;23.20;99.90
74901;DHT22;63461;51.416;6.758;2023-07-29T12:49:08;23.20;99.90
74901;DHT22;63461;51.416;6.758;2023-07-29T12:51:34;23.20;99.90
74901;DHT22;63461;51.416;6.758;2023-07-29T12:54:00;23.30;99.90
74901;DHT22;63461;51.416;6.758;2023-07-29T12:56:26;23.30;99.90
74901;DHT22;63461;51.416;6.758;2023-07-29T12:58:52;23.30;99.90
74901;DHT22;63461;51.416;6.758;2023-07-29T13:01:18;23.40;99.90
74901;DHT22;63461;51.416;6.758;2023-07-29T13:03:44;23.50;99.90
74901;DHT22;63461;51.416;6.758;2023-07-29T13:06:11;23.50;99.90
74901;DHT22;63461;51.416;6.758;2023-07-29T13:08:37;23.50;99.90
74901;DHT22;63461;51.416;6.758;2023-07-29T13:11:03;23.50;99.90
74901;DHT22;63461;51.416;6.758;2023-07-29T13:13:30;23.50;99.90
74901;DHT22;63461;51.416;6.758;2023-07-29T13:15:56;23.50;99.90
74901;DHT22;63461;51.416;6.758;2023-07-29T13:18:22;23.30;99.90
74901;DHT22;63461;51.416;6.758;2023-07-29T13:20:48;23.30;99.90
74901;DHT22;63461;51.416;6.758;2023-07-29T13:23:15;23.20;99.90
74901;DHT22;63461;51.416;6.758;2023-07-29T13:25:41;23.00;99.90
74901;DHT22;63461;51.416;6.758;2023-07-29T13:28:09;22.90;99.90
74901;DHT22;63461;51.416;6.758;2023-07-29T13:30:36;22.80;99.90
74901;DHT22;63461;51.416;6.758;2023-07-29T13:33:01;22.70;99.90
74901;DHT22;63461;51.416;6.758;2023-07-29T13:35:28;22.60;99.90
74901;DHT22;63461;51.416;6.758;2023-07-29T13:37:53;22.60;99.90
74901;DHT22;63461;51.416;6.758;2023-07-29T13:40:19;22.50;99.90
74901;DHT22;63461;51.416;6.758;2023-07-29T13:42:45;22.30;99.90
74901;DHT22;63461;51.416;6.758;2023-07-29T13:45:11;22.20;99.90
74901;DHT22;63461;51.416;6.758;2023-07-29T13:47:37;22.00;99.90
74901;DHT22;63461;51.416;6.758;2023-07-29T13:50:03;22.00;99.90
74901;DHT22;63461;51.416;6.758;2023-07-29T13:52:29;22.00;99.90
74901;DHT22;63461;51.416;6.758;2023-07-29T13:54:55;21.90;99.90
74901;DHT22;63461;51.416;6.758;2023-07-29T13:57:20;21.90;99.90
74901;DHT22;63461;51.416;6.758;2023-07-29T13:59:46;21.90;99.90
74901;DHT22;63461;51.416;6.758;2023-07-29T14:02:13;21.80;99.90
74901;DHT22;63461;51.416;6.758;2023-07-29T14:04:39;21.80;99.90
74901;DHT22;63461;51.416;6.758;2023-07-29T14:07:04;21.60;99.90
74901;DHT22;63461;51.416;6.758;2023-07-29T14:09:30;21.70;99.90
74901;DHT22;63461;51.416;6.758;2023-07-29T14:11:56;21.80;99.90
74901;DHT22;63461;51.416;6.758;2023-07-29T14:14:22;22.00;99.90
74901;DHT22;63461;51.416;6.758;2023-07-29T14:16:48;22.20;99.90
74901;DHT22;63461;51.416;6.758;2023-07-29T14:19:14;22.30;99.90
74901;DHT22;63461;51.416;6.758;2023-07-29T14:21:40;22.60;99.90
74901;DHT22;63461;51.416;6.758;2023-07-29T14:24:06;22.80;99.90
74901;DHT22;63461;51.416;6.758;2023-07-29T14:26:32;22.90;99.90
74901;DHT22;63461;51.416;6.758;2023-07-29T14:28:58;22.90;99.90
74901;DHT22;63461;51.416;6.758;2023-07-29T14:31:23;22.70;99.90
74901;DHT22;63461;51.416;6.758;2023-07-29T14:33:49;22.60;99.90
74901;DHT22;63461;51.416;6.758;2023-07-29T14:36:16;22.50;99.90
74901;DHT22;63461;51.416;6.758;2023-07-29T14:38:41;22.30;99.90
74901;DHT22;63461;51.416;6.758;2023-07-29T14:41:08;22.10;99.90
74901;DHT22;63461;51.416;6.758;2023-07-29T14:43:34;22.00;99.90
74901;DHT22;63461;51.416;6.758;2023-07-29T14:46:00;21.90;99.90
74901;DHT22;63461;51.416;6.758;2023-07-29T14:48:26;21.90;99.90
74901;DHT22;63461;51.416;6.758;2023-07-29T14:50:52;21.90;99.90
74901;DHT22;63461;51.416;6.758;2023-07-29T14:53:18;21.90;99.90
74901;DHT22;63461;51.416;6.758;2023-07-29T14:55:43;21.80;99.90
74901;DHT22;63461;51.416;6.758;2023-07-29T14:58:09;21.70;99.90
74901;DHT22;63461;51.416;6.758;2023-07-29T15:00:35;21.50;99.90
74901;DHT22;63461;51.416;6.758;2023-07-29T15:03:01;21.50;99.90
74901;DHT22;63461;51.416;6.758;2023-07-29T15:05:27;21.60;99.90
74901;DHT22;63461;51.416;6.758;2023-07-29T15:07:52;21.60;99.90
74901;DHT22;63461;51.416;6.758;2023-07-29T15:10:18;21.50;99.90
74901;DHT22;63461;51.416;6.758;2023-07-29T15:12:44;21.60;99.90
74901;DHT22;63461;51.416;6.758;2023-07-29T15:15:11;21.60;99.90
74901;DHT22;63461;51.416;6.758;2023-07-29T15:17:37;21.60;99.90
74901;DHT22;63461;51.416;6.758;2023-07-29T15:20:04;21.80;99.90
74901;DHT22;63461;51.416;6.758;2023-07-29T15:22:30;21.90;99.90
74901;DHT22;63461;51.416;6.758;2023-07-29T15:24:59;21.90;99.90
74901;DHT22;63461;51.416;6.758;2023-07-29T15:27:27;21.90;99.90
74901;DHT22;63461;51.416;6.758;2023-07-29T15:29:53;21.90;99.90
74901;DHT22;63461;51.416;6.758;2023-07-29T15:32:19;21.90;99.90
74901;DHT22;63461;51.416;6.758;2023-07-29T15:34:45;22.10;99.90
74901;DHT22;63461;51.416;6.758;2023-07-29T15:37:11;22.50;99.90
74901;DHT22;63461;51.416;6.758;2023-07-29T15:39:36;22.60;99.90
74901;DHT22;63461;51.416;6.758;2023-07-29T15:42:02;22.60;99.90
74901;DHT22;63461;51.416;6.758;2023-07-29T15:44:28;22.60;99.90